Time,TemperatureF,DewpointF,PressureIn,WindDirection,WindDirectionDegrees,WindSpeedMPH,WindSpeedGustMPH,Humidity,HourlyPrecipIn,Conditions,Clouds,dailyrainin,SolarRadiationWatts/m^2,SoftwareType,DateUTC
2013-09-05 00:04:00,68.6,60.0,29.90,SW,235,3.0,9.0,73,0.00,,,0.00,0,weatherlink.com 1.10,2013-09-05 04:04:00,
2013-09-05 00:19:00,68.1,60.0,29.89,SW,228,6.0,9.0,75,0.00,,,0.00,0,weatherlink.com 1.10,2013-09-05 04:19:00,
2013-09-05 00:34:00,67.6,60.0,29.89,SW,229,3.0,9.0,76,0.00,,,0.00,0,weatherlink.com 1.10,2013-09-05 04:34:00,
2013-09-05 00:49:00,67.4,60.0,29.89,SW,229,4.0,9.0,78,0.00,,,0.00,0,weatherlink.com 1.10,2013-09-05 04:49:00,
2013-09-05 01:04:00,67.1,60.0,29.89,SW,229,6.0,9.0,79,0.00,,,0.00,0,weatherlink.com 1.10,2013-09-05 05:04:00,
2013-09-05 01:19:00,66.7,60.0,29.88,SW,231,6.0,9.0,80,0.00,,,0.00,0,weatherlink.com 1.10,2013-09-05 05:19:00,
2013-09-05 01:34:00,66.3,60.0,29.88,SW,234,3.0,9.0,79,0.00,,,0.00,0,weatherlink.com 1.10,2013-09-05 05:34:00,
2013-09-05 01:49:00,66.2,60.0,29.88,WSW,238,4.0,9.0,80,0.00,,,0.00,0,weatherlink.com 1.10,2013-09-05 05:49:00,
2013-09-05 02:04:00,66.5,60.0,29.88,SW,235,2.0,8.0,79,0.00,,,0.00,0,weatherlink.com 1.10,2013-09-05 06:04:00,
2013-09-05 02:19:00,66.2,60.0,29.87,SW,235,5.0,7.0,79,0.00,,,0.00,0,weatherlink.com 1.10,2013-09-05 06:19:00,
2013-09-05 02:34:00,65.9,60.0,29.87,WSW,249,0.0,9.0,80,0.00,,,0.00,0,weatherlink.com 1.10,2013-09-05 06:34:00,
2013-09-05 02:49:00,65.9,60.0,29.87,WSW,249,4.0,4.0,80,0.00,,,0.00,0,weatherlink.com 1.10,2013-09-05 06:49:00,
2013-09-05 03:04:00,66.0,60.0,29.87,WSW,249,5.0,7.0,81,0.00,,,0.00,0,weatherlink.com 1.10,2013-09-05 07:04:00,
2013-09-05 03:19:00,66.0,60.0,29.87,WSW,247,0.0,7.0,80,0.00,,,0.00,0,weatherlink.com 1.10,2013-09-05 07:19:00,
2013-09-05 03:34:00,66.1,60.0,29.87,WSW,247,4.0,7.0,81,0.00,,,0.00,0,weatherlink.com 1.10,2013-09-05 07:34:00,
2013-09-05 03:49:00,66.2,60.0,29.86,WSW,246,3.0,8.0,81,0.00,,,0.00,0,weatherlink.com 1.10,2013-09-05 07:49:00,
2013-09-05 04:05:00,66.3,60.0,29.86,WSW,242,3.0,8.0,81,0.00,,,0.00,0,weatherlink.com 1.10,2013-09-05 08:05:00,
2013-09-05 04:20:00,66.4,60.0,29.86,WSW,242,4.0,7.0,81,0.00,,,0.00,0,weatherlink.com 1.10,2013-09-05 08:20:00,
2013-09-05 04:35:00,66.5,61.0,29.86,WSW,242,0.0,6.0,81,0.00,,,0.00,0,weatherlink.com 1.10,2013-09-05 08:35:00,
2013-09-05 04:50:00,66.4,60.0,29.85,WSW,242,0.0,0.0,81,0.00,,,0.00,0,weatherlink.com 1.10,2013-09-05 08:50:00,
2013-09-05 05:05:00,66.5,61.0,29.86,WSW,242,3.0,8.0,81,0.00,,,0.00,0,weatherlink.com 1.10,2013-09-05 09:05:00,
2013-09-05 05:20:00,66.8,60.0,29.87,SW,235,3.0,8.0,79,0.00,,,0.00,0,weatherlink.com 1.10,2013-09-05 09:20:00,
2013-09-05 05:35:00,67.0,60.0,29.87,SW,236,2.0,6.0,78,0.00,,,0.00,0,weatherlink.com 1.10,2013-09-05 09:35:00,
2013-09-05 05:50:00,67.1,60.0,29.87,WSW,245,4.0,8.0,77,0.00,,,0.00,0,weatherlink.com 1.10,2013-09-05 09:50:00,
2013-09-05 06:05:00,67.4,60.0,29.87,WSW,257,5.0,8.0,77,0.00,,,0.00,0,weatherlink.com 1.10,2013-09-05 10:05:00,
2013-09-05 06:20:00,67.6,60.0,29.88,WSW,258,2.0,7.0,77,0.00,,,0.00,5,weatherlink.com 1.10,2013-09-05 10:20:00,
2013-09-05 06:35:00,67.6,60.0,29.88,West,262,2.0,7.0,76,0.00,,,0.00,14,weatherlink.com 1.10,2013-09-05 10:35:00,
2013-09-05 06:50:00,67.6,60.0,29.87,West,262,0.0,4.0,76,0.00,,,0.00,19,weatherlink.com 1.10,2013-09-05 10:50:00,
2013-09-05 07:05:00,67.6,60.0,29.88,West,261,3.0,7.0,77,0.00,,,0.00,25,weatherlink.com 1.10,2013-09-05 11:05:00,
2013-09-05 07:20:00,67.7,60.0,29.89,West,262,1.0,6.0,77,0.00,,,0.00,28,weatherlink.com 1.10,2013-09-05 11:20:00,
2013-09-05 07:35:00,68.0,60.0,29.89,West,264,0.0,6.0,76,0.00,,,0.00,37,weatherlink.com 1.10,2013-09-05 11:35:00,
2013-09-05 07:50:00,68.2,60.0,29.89,West,266,0.0,5.0,76,0.00,,,0.00,25,weatherlink.com 1.10,2013-09-05 11:50:00,
2013-09-05 08:05:00,68.5,60.0,29.91,NW,305,3.0,9.0,75,0.00,,,0.00,16,weatherlink.com 1.10,2013-09-05 12:05:00,
2013-09-05 08:20:00,67.9,62.0,29.91,NW,308,2.0,9.0,80,0.01,,,0.01,32,weatherlink.com 1.10,2013-09-05 12:20:00,
2013-09-05 08:35:00,66.7,61.0,29.91,NW,321,1.0,7.0,83,0.01,,,0.01,26,weatherlink.com 1.10,2013-09-05 12:35:00,
2013-09-05 08:50:00,66.0,62.0,29.92,NW,322,2.0,5.0,86,0.01,,,0.01,19,weatherlink.com 1.10,2013-09-05 12:50:00,
2013-09-05 09:05:00,65.5,62.0,29.93,NW,321,0.0,7.0,87,0.03,,,0.03,49,weatherlink.com 1.10,2013-09-05 13:05:00,
2013-09-05 09:20:00,65.0,62.0,29.94,NW,319,0.0,6.0,89,0.04,,,0.05,25,weatherlink.com 1.10,2013-09-05 13:20:00,
2013-09-05 09:35:00,64.7,62.0,29.94,NW,317,2.0,7.0,90,0.06,,,0.07,65,weatherlink.com 1.10,2013-09-05 13:35:00,
2013-09-05 09:50:00,64.7,62.0,29.95,NW,312,2.0,5.0,91,0.07,,,0.08,98,weatherlink.com 1.10,2013-09-05 13:50:00,
2013-09-05 10:05:00,65.1,63.0,29.95,NW,312,0.0,6.0,92,0.04,,,0.08,183,weatherlink.com 1.10,2013-09-05 14:05:00,
2013-09-05 10:20:00,65.3,63.0,29.95,NW,323,0.0,6.0,91,0.03,,,0.08,104,weatherlink.com 1.10,2013-09-05 14:20:00,
2013-09-05 10:35:00,65.0,62.0,29.95,North,355,5.0,9.0,89,0.01,,,0.08,127,weatherlink.com 1.10,2013-09-05 14:35:00,
2013-09-05 10:50:00,65.3,62.0,29.95,NNE,22,5.0,12.0,89,0.00,,,0.08,283,weatherlink.com 1.10,2013-09-05 14:50:00,
2013-09-05 11:05:00,65.7,62.0,29.95,ENE,67,8.0,15.0,87,0.00,,,0.08,74,weatherlink.com 1.10,2013-09-05 15:05:00,
2013-09-05 11:20:00,64.1,61.0,29.96,ENE,58,7.0,16.0,88,0.00,,,0.08,211,weatherlink.com 1.10,2013-09-05 15:20:00,
2013-09-05 11:35:00,64.0,60.0,29.97,ENE,61,0.0,15.0,88,0.00,,,0.08,279,weatherlink.com 1.10,2013-09-05 15:35:00,
2013-09-05 11:50:00,63.6,60.0,29.97,NE,51,3.0,14.0,87,0.00,,,0.08,287,weatherlink.com 1.10,2013-09-05 15:50:00,
2013-09-05 12:05:00,64.0,60.0,29.97,ENE,57,8.0,12.0,86,0.00,,,0.08,360,weatherlink.com 1.10,2013-09-05 16:05:00,
2013-09-05 12:20:00,64.8,60.0,29.97,ENE,57,2.0,11.0,84,0.00,,,0.08,408,weatherlink.com 1.10,2013-09-05 16:20:00,
2013-09-05 12:35:00,65.6,60.0,29.97,ENE,64,7.0,11.0,83,0.00,,,0.08,167,weatherlink.com 1.10,2013-09-05 16:35:00,
2013-09-05 12:50:00,65.4,60.0,29.97,ENE,66,0.0,9.0,82,0.00,,,0.08,733,weatherlink.com 1.10,2013-09-05 16:50:00,
2013-09-05 13:05:00,66.6,60.0,29.97,ENE,78,10.0,13.0,80,0.00,,,0.08,186,weatherlink.com 1.10,2013-09-05 17:05:00,
2013-09-05 13:20:00,65.5,60.0,29.97,East,81,9.0,12.0,81,0.00,,,0.08,691,weatherlink.com 1.10,2013-09-05 17:20:00,
2013-09-05 13:35:00,66.6,60.0,29.97,East,86,13.0,15.0,80,0.00,,,0.08,241,weatherlink.com 1.10,2013-09-05 17:35:00,
2013-09-05 13:50:00,65.6,59.0,29.97,East,81,8.0,15.0,79,0.00,,,0.08,229,weatherlink.com 1.10,2013-09-05 17:50:00,
2013-09-05 14:05:00,64.9,58.0,29.98,East,89,8.0,14.0,79,0.00,,,0.08,251,weatherlink.com 1.10,2013-09-05 18:05:00,
2013-09-05 14:20:00,64.2,59.0,29.98,East,94,9.0,16.0,82,0.00,,,0.08,257,weatherlink.com 1.10,2013-09-05 18:20:00,
2013-09-05 14:35:00,64.0,58.0,29.98,East,101,13.0,14.0,81,0.00,,,0.08,294,weatherlink.com 1.10,2013-09-05 18:35:00,
2013-09-05 14:51:00,63.9,57.0,29.98,ESE,103,4.0,14.0,79,0.00,,,0.08,227,weatherlink.com 1.10,2013-09-05 18:51:00,
2013-09-05 15:06:00,63.9,58.0,29.98,ESE,102,4.0,11.0,80,0.00,,,0.08,211,weatherlink.com 1.10,2013-09-05 19:06:00,
2013-09-05 15:21:00,63.9,57.0,29.99,East,98,5.0,11.0,78,0.00,,,0.08,188,weatherlink.com 1.10,2013-09-05 19:21:00,
2013-09-05 15:36:00,64.0,57.0,30.00,East,99,7.0,8.0,78,0.00,,,0.08,186,weatherlink.com 1.10,2013-09-05 19:36:00,
2013-09-05 15:51:00,63.8,57.0,30.00,East,98,5.0,9.0,78,0.00,,,0.08,162,weatherlink.com 1.10,2013-09-05 19:51:00,
2013-09-05 16:06:00,64.0,57.0,30.00,East,98,6.0,8.0,78,0.00,,,0.08,120,weatherlink.com 1.10,2013-09-05 20:06:00,
2013-09-05 16:21:00,63.7,56.0,30.00,East,98,6.0,9.0,77,0.00,,,0.08,105,weatherlink.com 1.10,2013-09-05 20:21:00,
2013-09-05 16:36:00,63.7,56.0,30.00,East,99,6.0,7.0,77,0.00,,,0.08,72,weatherlink.com 1.10,2013-09-05 20:36:00,
2013-09-05 16:51:00,63.6,56.0,30.00,East,100,3.0,8.0,76,0.00,,,0.08,42,weatherlink.com 1.10,2013-09-05 20:51:00,
2013-09-05 17:06:00,63.4,55.0,30.00,East,101,0.0,8.0,75,0.00,,,0.08,33,weatherlink.com 1.10,2013-09-05 21:06:00,
2013-09-05 17:21:00,63.6,56.0,30.01,East,101,3.0,7.0,76,0.00,,,0.08,26,weatherlink.com 1.10,2013-09-05 21:21:00,
2013-09-05 17:36:00,63.6,56.0,30.02,ESE,103,4.0,9.0,77,0.00,,,0.08,19,weatherlink.com 1.10,2013-09-05 21:36:00,
2013-09-05 17:51:00,63.3,56.0,30.01,ESE,103,0.0,5.0,77,0.00,,,0.08,26,weatherlink.com 1.10,2013-09-05 21:51:00,
2013-09-05 18:06:00,63.1,55.0,30.02,ESE,103,2.0,8.0,76,0.00,,,0.08,30,weatherlink.com 1.10,2013-09-05 22:06:00,
2013-09-05 18:21:00,63.0,55.0,30.02,ESE,103,0.0,5.0,76,0.00,,,0.08,26,weatherlink.com 1.10,2013-09-05 22:21:00,
2013-09-05 18:36:00,62.9,56.0,30.03,ESE,103,0.0,3.0,77,0.00,,,0.08,18,weatherlink.com 1.10,2013-09-05 22:36:00,
2013-09-05 18:51:00,62.7,56.0,30.04,ESE,103,0.0,0.0,78,0.00,,,0.08,12,weatherlink.com 1.10,2013-09-05 22:51:00,
2013-09-05 19:06:00,62.5,56.0,30.04,ESE,103,0.0,0.0,79,0.00,,,0.08,0,weatherlink.com 1.10,2013-09-05 23:06:00,
2013-09-05 19:21:00,62.0,55.0,30.04,ESE,103,0.0,0.0,79,0.00,,,0.08,0,weatherlink.com 1.10,2013-09-05 23:21:00,
2013-09-05 19:36:00,61.6,55.0,30.05,ESE,103,0.0,0.0,79,0.00,,,0.08,0,weatherlink.com 1.10,2013-09-05 23:36:00,
2013-09-05 19:51:00,61.1,55.0,30.06,ESE,103,0.0,0.0,80,0.00,,,0.08,0,weatherlink.com 1.10,2013-09-05 23:51:00,
2013-09-05 20:06:00,60.5,55.0,30.07,ESE,103,0.0,0.0,81,0.00,,,0.08,0,weatherlink.com 1.10,2013-09-06 00:06:00,
2013-09-05 20:21:00,59.9,54.0,30.07,ESE,103,0.0,0.0,82,0.00,,,0.08,0,weatherlink.com 1.10,2013-09-06 00:21:00,
2013-09-05 20:36:00,59.3,54.0,30.08,ESE,103,0.0,0.0,83,0.00,,,0.08,0,weatherlink.com 1.10,2013-09-06 00:36:00,
2013-09-05 20:51:00,58.8,54.0,30.08,ESE,103,0.0,0.0,84,0.00,,,0.08,0,weatherlink.com 1.10,2013-09-06 00:51:00,
2013-09-05 21:06:00,58.4,54.0,30.08,ESE,103,0.0,0.0,85,0.00,,,0.08,0,weatherlink.com 1.10,2013-09-06 01:06:00,
2013-09-05 21:21:00,58.0,54.0,30.09,ESE,103,0.0,0.0,86,0.00,,,0.08,0,weatherlink.com 1.10,2013-09-06 01:21:00,
2013-09-05 21:36:00,57.6,54.0,30.10,ESE,103,0.0,0.0,87,0.00,,,0.08,0,weatherlink.com 1.10,2013-09-06 01:36:00,
2013-09-05 21:51:00,57.3,54.0,30.11,ESE,103,0.0,0.0,87,0.00,,,0.08,0,weatherlink.com 1.10,2013-09-06 01:51:00,
2013-09-05 22:06:00,57.3,54.0,30.11,ESE,103,0.0,0.0,88,0.00,,,0.08,0,weatherlink.com 1.10,2013-09-06 02:06:00,
2013-09-05 22:21:00,57.2,53.0,30.11,ESE,103,0.0,0.0,87,0.00,,,0.08,0,weatherlink.com 1.10,2013-09-06 02:21:00,
2013-09-05 22:36:00,56.9,53.0,30.11,ESE,103,2.0,6.0,86,0.00,,,0.08,0,weatherlink.com 1.10,2013-09-06 02:36:00,
2013-09-05 22:51:00,56.9,52.0,30.12,East,98,0.0,7.0,82,0.00,,,0.08,0,weatherlink.com 1.10,2013-09-06 02:51:00,
2013-09-05 23:06:00,57.9,50.0,30.12,East,96,0.0,6.0,76,0.00,,,0.08,0,weatherlink.com 1.10,2013-09-06 03:06:00,
2013-09-05 23:21:00,58.3,50.0,30.12,East,96,0.0,5.0,74,0.00,,,0.08,0,weatherlink.com 1.10,2013-09-06 03:21:00,
2013-09-05 23:37:00,58.1,49.0,30.13,East,83,0.0,8.0,72,0.00,,,0.08,0,weatherlink.com 1.10,2013-09-06 03:37:00,
2013-09-05 23:52:00,57.8,49.0,30.14,East,83,0.0,5.0,73,0.00,,,0.08,0,weatherlink.com 1.10,2013-09-06 03:52:00,